Kuala Lumpur, Malaysia
Current Conditions -  °F | °C
As of 12:00 PM on Monday 24 Nov 2014 (Local Time) from WMSA Reporting Station
Broken Clouds Broken Clouds  
Wind Chill: 88°   Ceiling: 28000
Heat Index: 98°   Visibility: 6mi
Dew Point: 75°   Wind: 5mph
Humidity: 66%   Direction: 290°WNW
Pressure: 29.85"   Gusts: NA
Location:  3.16°N, 101.71°E
Report Text: WMSA 240400Z 29004KT 9999 FEW017CB SCT140 BKN280 31/24 Q1011 NOSIG
Loading
Personal Weather Stations






























Interactive Weather Map New forecast layout! Learn more

10-Day Weather Forecast

Advertisements
Track Severe Weather on mobile